Haldane, Illinois
Current Conditions -  °F | °C
As of 9:55 AM on Friday 31 Oct 2014 (Local Time) from KFEP Reporting Station
Scattered Clouds Scattered Clouds  
Wind Chill: 24°   Ceiling: Unl
Heat Index: 35°   Visibility: 10mi
Dew Point: 21°   Wind: 21mph
Humidity: 57%   Direction: 350°N
Pressure: 30.28"   Gusts: 35mph
Location:  42.1164°N, 89.5849°W
Report Text: KFEP 311455Z AUTO 35018G30KT 10SM SCT034 SCT042 02/M06 A3028 RMK AO2 T00171060
Loading
Personal Weather Stations






























Interactive Weather Map
Tropical Storm Tracking
New forecast layout! Learn more

10-Day Weather Forecast

Advertisements
Track Severe Weather on mobile